Time;durP1;ratioP1;P1;durP2;ratioP2;P2;SDS_P1;SDS_P2;PMS_P1;PMS_P2;Temp;Humidity;BMP_temperature;BMP_pressure;BME280_temperature;BME280_humidity;BME280_pressure;Samples;Min_cycle;Max_cycle;Signal;HPM_P1;HPM_P2
2022/10/20 00:00:18;;;;;;;1.23;1.20;;;11.30;96.20;10.50;96253.00;;;;5115166;28;20289;-53
2022/10/20 00:02:45;;;;;;;2.13;2.03;;;11.30;96.30;10.50;96253.00;;;;5115042;28;20226;-52
2022/10/20 00:05:12;;;;;;;1.27;1.27;;;11.30;96.20;10.50;96256.00;;;;5115060;28;20543;-52
2022/10/20 00:07:38;;;;;;;1.40;1.40;;;11.20;97.40;10.40;96266.00;;;;5115166;28;20591;-52
2022/10/20 00:10:08;;;;;;;2.33;2.23;;;11.20;96.90;10.40;96261.00;;;;5114970;28;20322;-53
2022/10/20 00:12:34;;;;;;;1.63;1.53;;;11.20;96.90;10.40;96259.00;;;;5115276;28;20186;-51
2022/10/20 00:15:01;;;;;;;1.83;1.73;;;11.20;96.90;10.50;96255.00;;;;5115051;28;20192;-52
2022/10/20 00:17:27;;;;;;;1.13;1.13;;;11.20;96.90;10.50;96255.00;;;;5114981;28;20204;-52
2022/10/20 00:19:54;;;;;;;1.53;1.50;;;11.20;97.20;10.50;96248.00;;;;5114937;28;20206;-52
2022/10/20 00:22:21;;;;;;;1.33;1.33;;;11.20;97.10;10.60;96238.00;;;;5114915;28;20201;-54
2022/10/20 00:24:47;;;;;;;1.10;1.10;;;11.30;97.30;10.50;96247.00;;;;5114810;28;20249;-52
2022/10/20 00:27:14;;;;;;;1.07;1.07;;;11.30;97.00;10.50;96241.00;;;;5096860;28;20264;-52
2022/10/20 00:29:42;;;;;;;2.93;2.03;;;11.20;97.10;10.50;96256.00;;;;5114698;28;20222;-54
2022/10/20 00:32:08;;;;;;;2.27;1.83;;;11.30;97.40;10.50;96254.00;;;;5114729;28;20598;-54
2022/10/20 00:34:35;;;;;;;1.83;1.73;;;11.30;97.50;10.50;96246.00;;;;5114635;28;20218;-54
2022/10/20 00:37:01;;;;;;;2.40;2.20;;;11.20;97.70;10.50;96247.00;;;;5096842;28;20296;-52
2022/10/20 00:39:29;;;;;;;4.77;2.53;;;11.30;98.00;10.50;96236.00;;;;5114665;28;20229;-52
2022/10/20 00:41:55;;;;;;;1.77;1.40;;;11.30;98.10;10.60;96234.00;;;;5114671;28;20186;-53
2022/10/20 00:44:50;;;;;;;2.30;2.20;;;11.30;97.90;10.50;96230.00;;;;5114588;28;20283;-52
2022/10/20 00:47:27;;;;;;;2.00;1.83;;;11.30;97.80;10.40;96208.00;;;;5113908;28;20218;-52
2022/10/20 00:50:01;;;;;;;1.00;1.00;;;11.20;97.90;10.40;96219.00;;;;5113475;28;20221;-54
2022/10/20 00:52:27;;;;;;;1.00;1.00;;;11.20;98.50;10.40;96212.00;;;;5114487;28;20280;-52
2022/10/20 00:54:54;;;;;;;1.47;1.43;;;11.20;98.70;10.40;96214.00;;;;5114331;28;20295;-52
2022/10/20 00:57:21;;;;;;;1.77;1.47;;;11.20;98.70;10.30;96211.00;;;;5113463;28;20544;-52
2022/10/20 00:59:47;;;;;;;1.37;1.27;;;11.20;98.40;10.30;96211.00;;;;5114281;28;20634;-52
2022/10/20 01:02:14;;;;;;;1.80;1.73;;;11.20;98.40;10.30;96200.00;;;;5114619;28;20197;-54
2022/10/20 01:04:42;;;;;;;3.10;1.73;;;11.10;98.20;10.20;96211.00;;;;5114402;28;20213;-52
2022/10/20 01:07:10;;;;;;;1.10;1.10;;;11.10;98.30;10.20;96198.00;;;;5114204;28;20587;-52
2022/10/20 01:09:38;;;;;;;2.47;2.23;;;10.90;97.40;10.20;96201.00;;;;5114345;28;20186;-52
2022/10/20 01:12:20;;;;;;;1.07;1.07;;;11.00;98.40;10.20;96197.00;;;;5096347;28;20210;-52
2022/10/20 01:15:01;;;;;;;1.40;1.30;;;10.90;98.30;10.20;96167.00;;;;5114089;28;20256;-53
2022/10/20 01:17:41;;;;;;;3.73;2.30;;;10.90;98.40;10.30;96193.00;;;;5113997;28;20272;-54
2022/10/20 01:20:52;;;;;;;2.37;2.27;;;10.90;98.90;10.30;96180.00;;;;5114000;28;20204;-54
2022/10/20 01:23:53;;;;;;;2.57;2.07;;;11.00;99.10;10.30;96180.00;;;;5112878;28;20217;-52
2022/10/20 01:27:08;;;;;;;1.83;1.73;;;11.10;99.30;10.40;96177.00;;;;5113865;28;20221;-52
2022/10/20 01:29:44;;;;;;;2.50;2.30;;;11.10;99.50;10.30;96184.00;;;;5114076;28;20216;-52
2022/10/20 01:32:21;;;;;;;1.63;1.53;;;11.00;98.90;10.20;96175.00;;;;5113828;28;20217;-52
2022/10/20 01:35:03;;;;;;;1.80;1.70;;;10.90;98.60;10.20;96171.00;;;;5113749;28;20254;-52
2022/10/20 01:37:38;;;;;;;1.60;1.60;;;10.90;98.80;10.10;96148.00;;;;5113745;28;20607;-53
2022/10/20 01:40:15;;;;;;;2.03;1.63;;;10.80;98.30;10.00;96173.00;;;;5096016;28;20212;-52
2022/10/20 01:42:46;;;;;;;1.00;1.00;;;10.80;98.10;10.10;96173.00;;;;5113864;28;20229;-52
2022/10/20 01:45:17;;;;;;;1.50;1.40;;;10.80;98.20;10.10;96167.00;;;;5113822;28;20562;-52
2022/10/20 01:47:46;;;;;;;1.40;1.40;;;10.80;98.30;10.10;96164.00;;;;5113695;28;20239;-52
2022/10/20 01:50:16;;;;;;;2.10;1.90;;;10.80;98.20;10.10;96152.00;;;;5095718;28;20197;-52
2022/10/20 01:52:42;;;;;;;1.60;1.50;;;10.90;98.20;10.10;96155.00;;;;5113561;28;20229;-52
2022/10/20 01:55:13;;;;;;;2.53;2.43;;;10.90;98.10;10.10;96148.00;;;;5095580;28;20613;-52
2022/10/20 01:57:58;;;;;;;1.90;1.80;;;10.90;98.10;10.10;96141.00;;;;5114013;28;20240;-54
2022/10/20 02:00:26;;;;;;;1.50;1.40;;;10.80;98.20;10.10;96131.00;;;;5117089;28;20204;-52
2022/10/20 02:03:29;;;;;;;1.53;1.50;;;10.80;98.20;10.00;96139.00;;;;5116909;28;20274;-52
2022/10/20 02:06:14;;;;;;;1.57;1.47;;;10.80;97.90;10.00;96131.00;;;;5117019;28;20209;-52
2022/10/20 02:08:46;;;;;;;1.63;1.53;;;10.80;98.20;10.00;96137.00;;;;5117259;28;20249;-52
2022/10/20 02:11:21;;;;;;;1.73;1.63;;;10.70;98.40;10.00;96139.00;;;;5117061;28;20201;-52
2022/10/20 02:13:53;;;;;;;1.60;1.50;;;10.80;98.30;9.80;96138.00;;;;5098910;28;20228;-52
2022/10/20 02:16:26;;;;;;;1.43;1.40;;;10.70;98.00;9.70;96130.00;;;;5117024;28;20214;-53
2022/10/20 02:18:54;;;;;;;0.77;0.77;;;10.50;98.50;9.70;96134.00;;;;5116765;28;20249;-52
2022/10/20 02:21:20;;;;;;;1.23;1.23;;;10.50;99.10;9.70;96130.00;;;;5116890;28;20239;-53
2022/10/20 02:23:51;;;;;;;1.83;1.73;;;10.40;99.90;9.80;96119.00;;;;5098690;28;20260;-52
2022/10/20 02:26:24;;;;;;;1.37;1.37;;;10.50;99.90;9.80;96127.00;;;;5117162;28;20251;-53
2022/10/20 02:28:58;;;;;;;1.00;1.00;;;10.50;99.90;9.80;96124.00;;;;5116643;28;20734;-54
2022/10/20 02:31:25;;;;;;;1.30;1.27;;;10.60;99.90;9.70;96126.00;;;;5116630;28;20198;-52
2022/10/20 02:33:55;;;;;;;1.73;1.63;;;10.50;99.90;9.70;96128.00;;;;5116548;28;20205;-52
2022/10/20 02:36:27;;;;;;;1.87;1.10;;;10.50;99.90;9.80;96116.00;;;;5116592;28;20285;-52
2022/10/20 02:38:55;;;;;;;1.13;1.13;;;10.50;99.90;9.70;96128.00;;;;5098695;28;20216;-52
2022/10/20 02:41:23;;;;;;;1.67;1.57;;;10.50;99.90;9.70;96120.00;;;;5116570;28;20277;-52
2022/10/20 02:43:50;;;;;;;1.10;1.10;;;10.50;99.90;9.60;96109.00;;;;5116348;28;20722;-52
2022/10/20 02:46:18;;;;;;;2.33;1.40;;;10.40;99.90;9.70;96107.00;;;;5116375;28;20190;-53
2022/10/20 02:48:45;;;;;;;1.90;1.80;;;10.50;99.90;9.80;96111.00;;;;5116372;28;20209;-52
2022/10/20 02:51:12;;;;;;;1.53;1.43;;;10.50;99.90;9.80;96101.00;;;;5116366;28;20190;-52
2022/10/20 02:53:38;;;;;;;1.00;1.00;;;10.60;99.90;9.80;96101.00;;;;5098475;28;20205;-53
2022/10/20 02:56:05;;;;;;;1.40;1.40;;;10.50;99.90;9.90;96108.00;;;;5116157;28;20225;-52
2022/10/20 02:58:32;;;;;;;1.97;1.87;;;10.70;99.90;9.90;96097.00;;;;5116359;28;20281;-55
2022/10/20 03:00:58;;;;;;;4.10;1.30;;;10.70;99.90;10.00;96097.00;;;;5116318;28;20305;-52
2022/10/20 03:03:24;;;;;;;1.60;1.57;;;10.70;99.90;10.00;96112.00;;;;5116158;28;20218;-53
2022/10/20 03:05:52;;;;;;;1.93;1.67;;;10.70;99.90;10.10;96104.00;;;;5098298;28;20225;-52
2022/10/20 03:08:18;;;;;;;1.77;1.67;;;10.80;99.90;9.90;96102.00;;;;5115767;28;20633;-52
2022/10/20 03:10:47;;;;;;;1.53;1.53;;;10.70;99.90;9.90;96105.00;;;;5115911;28;20229;-53
2022/10/20 03:13:14;;;;;;;2.23;1.13;;;10.70;99.90;9.80;96104.00;;;;5115943;28;20288;-53
2022/10/20 03:15:43;;;;;;;3.07;2.13;;;10.60;99.10;9.90;96104.00;;;;5097951;28;20221;-53
2022/10/20 03:18:09;;;;;;;2.20;2.07;;;10.60;99.70;9.90;96098.00;;;;5116029;28;20212;-53
2022/10/20 03:20:35;;;;;;;1.57;1.53;;;10.60;99.90;9.90;96105.00;;;;5097869;28;20206;-52
2022/10/20 03:23:05;;;;;;;2.03;1.93;;;10.70;99.90;9.90;96097.00;;;;5115848;28;20218;-52
2022/10/20 03:25:31;;;;;;;2.33;2.13;;;10.70;99.90;9.90;96097.00;;;;5115868;28;20280;-52
2022/10/20 03:27:58;;;;;;;1.37;1.37;;;10.70;99.90;10.00;96106.00;;;;5115762;28;20287;-53
2022/10/20 03:30:25;;;;;;;1.80;1.47;;;10.70;99.90;10.10;96104.00;;;;5115650;28;20205;-52
2022/10/20 03:32:51;;;;;;;1.03;1.03;;;10.80;99.90;10.20;96112.00;;;;5097526;28;20616;-52
2022/10/20 03:35:18;;;;;;;1.43;1.43;;;10.90;99.90;10.30;96104.00;;;;5115688;28;20237;-52
2022/10/20 03:37:44;;;;;;;2.07;1.97;;;11.00;99.90;10.30;96091.00;;;;5115589;28;20228;-53
2022/10/20 03:40:11;;;;;;;2.77;2.57;;;11.10;99.90;10.40;96097.00;;;;5116030;28;20507;-52
2022/10/20 03:42:38;;;;;;;1.77;1.67;;;11.10;99.90;10.40;96088.00;;;;5115684;28;20308;-59
2022/10/20 03:45:06;;;;;;;1.80;1.70;;;11.10;99.90;10.40;96089.00;;;;5115636;28;20228;-54
2022/10/20 03:47:35;;;;;;;2.13;1.60;;;11.10;99.90;10.40;96086.00;;;;5115377;28;20655;-52
2022/10/20 03:50:03;;;;;;;1.43;1.43;;;11.20;99.90;10.50;96084.00;;;;5114631;28;20221;-54
2022/10/20 03:52:29;;;;;;;1.93;1.80;;;11.20;99.90;10.50;96081.00;;;;5115709;28;20190;-54
2022/10/20 03:54:56;;;;;;;1.30;1.30;;;11.20;99.90;10.50;96079.00;;;;5115432;28;20208;-52
2022/10/20 03:57:25;;;;;;;1.63;1.53;;;11.20;99.90;10.50;96072.00;;;;5115409;28;20198;-52
2022/10/20 03:59:51;;;;;;;2.27;2.03;;;11.20;99.90;10.50;96062.00;;;;5115214;28;20192;-53
2022/10/20 04:02:31;;;;;;;1.47;1.37;;;11.20;99.90;10.50;96073.00;;;;5115173;28;20639;-53
2022/10/20 04:04:58;;;;;;;1.60;1.60;;;11.30;99.90;10.60;96069.00;;;;5115076;28;20220;-52
2022/10/20 04:07:26;;;;;;;4.77;2.57;;;11.30;99.90;10.60;96074.00;;;;5115390;28;20217;-52
2022/10/20 04:09:55;;;;;;;2.13;1.90;;;11.30;99.90;10.50;96070.00;;;;5115127;28;20198;-52
2022/10/20 04:12:22;;;;;;;1.13;1.13;;;11.30;99.90;10.40;96065.00;;;;5097098;28;20248;-54
2022/10/20 04:14:50;;;;;;;1.80;1.70;;;11.20;99.90;10.50;96074.00;;;;5114916;28;20217;-53
2022/10/20 04:17:16;;;;;;;1.53;1.43;;;11.20;99.90;10.50;96060.00;;;;5114952;28;20201;-52
2022/10/20 04:19:42;;;;;;;0.97;0.97;;;11.20;99.90;10.50;96056.00;;;;5096765;28;20538;-52
2022/10/20 04:22:09;;;;;;;1.57;1.47;;;11.30;99.90;10.50;96067.00;;;;5113928;28;20209;-52
2022/10/20 04:24:35;;;;;;;2.03;1.93;;;11.30;99.90;10.60;96064.00;;;;5114673;28;20668;-52
2022/10/20 04:27:02;;;;;;;2.50;2.30;;;11.30;99.90;10.60;96060.00;;;;5114836;28;20215;-54
2022/10/20 04:29:28;;;;;;;4.93;3.47;;;11.30;99.90;10.60;96059.00;;;;5114675;28;20561;-54
2022/10/20 04:31:55;;;;;;;1.80;1.73;;;11.30;99.90;10.70;96058.00;;;;5114689;28;20194;-56
2022/10/20 04:34:22;;;;;;;2.63;2.43;;;11.40;99.90;10.70;96048.00;;;;5114574;28;20213;-53
2022/10/20 04:36:51;;;;;;;1.87;1.77;;;11.40;99.90;10.60;96041.00;;;;5114954;28;20202;-52
2022/10/20 04:39:17;;;;;;;1.93;1.83;;;11.40;99.90;10.60;96043.00;;;;5114571;28;20205;-52
2022/10/20 04:41:44;;;;;;;1.63;1.53;;;11.40;99.90;10.60;96038.00;;;;5114566;28;20198;-53
2022/10/20 04:44:10;;;;;;;2.53;2.33;;;11.40;99.90;10.70;96041.00;;;;5114391;28;20807;-52
2022/10/20 04:46:37;;;;;;;1.17;1.17;;;11.40;99.90;10.70;96044.00;;;;5114616;28;20198;-53
2022/10/20 04:49:05;;;;;;;1.73;1.60;;;11.40;99.90;10.80;96041.00;;;;5114435;28;20194;-52
2022/10/20 04:51:34;;;;;;;2.33;2.20;;;11.50;99.90;10.80;96042.00;;;;5114631;28;20560;-53
2022/10/20 04:54:03;;;;;;;3.27;3.07;;;11.60;99.90;10.90;96032.00;;;;5114602;28;20202;-52
2022/10/20 04:56:32;;;;;;;1.10;1.10;;;11.60;99.90;10.90;96038.00;;;;5114318;28;20218;-52
2022/10/20 04:58:59;;;;;;;2.47;2.10;;;11.70;99.90;10.90;96041.00;;;;5114274;28;20197;-52
2022/10/20 05:01:30;;;;;;;1.77;1.67;;;11.70;99.90;10.90;96033.00;;;;5114247;28;20221;-52
2022/10/20 05:03:57;;;;;;;1.37;1.27;;;11.60;99.90;10.80;96029.00;;;;5114075;28;20217;-52
2022/10/20 05:06:27;;;;;;;1.30;1.30;;;11.60;99.90;10.80;96033.00;;;;5096071;28;20226;-52
2022/10/20 05:08:57;;;;;;;1.00;1.00;;;11.50;99.90;10.80;96029.00;;;;5114077;28;20266;-53
2022/10/20 05:11:27;;;;;;;1.70;1.60;;;11.50;99.90;10.80;96026.00;;;;5114220;28;20225;-53
2022/10/20 05:13:56;;;;;;;2.33;1.97;;;11.50;99.90;10.80;96018.00;;;;5114139;28;20194;-53
2022/10/20 05:16:23;;;;;;;1.77;1.67;;;11.50;99.90;10.80;96014.00;;;;5113910;28;20217;-52
2022/10/20 05:18:52;;;;;;;1.70;1.60;;;11.50;99.90;10.80;96013.00;;;;5113987;28;20248;-52
2022/10/20 05:21:22;;;;;;;1.70;1.60;;;11.60;99.90;10.80;96007.00;;;;5113921;28;20222;-52
2022/10/20 05:23:53;;;;;;;1.73;1.63;;;11.50;99.90;10.80;96005.00;;;;5114055;28;20935;-52
2022/10/20 05:26:20;;;;;;;1.73;1.63;;;11.60;99.90;10.90;95994.00;;;;5113670;28;20205;-52
2022/10/20 05:28:49;;;;;;;1.57;1.47;;;11.60;99.90;10.90;95996.00;;;;5113831;28;20201;-52
2022/10/20 05:31:18;;;;;;;1.87;1.77;;;11.60;99.90;10.90;95995.00;;;;5113715;28;20194;-52
2022/10/20 05:33:47;;;;;;;2.40;2.30;;;11.60;99.90;10.90;95991.00;;;;5113564;28;20205;-52
2022/10/20 05:36:18;;;;;;;3.50;1.93;;;11.70;99.90;10.90;95990.00;;;;5095946;28;20233;-52
2022/10/20 05:38:45;;;;;;;1.60;1.53;;;11.70;99.90;11.00;95984.00;;;;5113791;28;20552;-52
2022/10/20 05:41:14;;;;;;;1.87;1.77;;;11.60;99.90;11.00;95979.00;;;;5113669;28;20190;-52
2022/10/20 05:43:41;;;;;;;1.47;1.47;;;11.70;99.90;11.00;95983.00;;;;5113731;28;20586;-51
2022/10/20 05:46:08;;;;;;;2.03;1.30;;;11.70;99.90;11.00;95979.00;;;;5113542;28;20198;-52
2022/10/20 05:48:35;;;;;;;1.47;1.47;;;11.70;99.90;11.00;95986.00;;;;5095768;28;20540;-52
2022/10/20 05:51:09;;;;;;;1.67;1.57;;;11.70;99.90;10.90;95982.00;;;;5095483;28;20213;-53
2022/10/20 05:53:37;;;;;;;1.37;1.33;;;11.70;99.90;11.00;95988.00;;;;5113492;28;20214;-52
2022/10/20 05:56:04;;;;;;;3.20;3.00;;;11.70;99.90;11.00;95981.00;;;;5113592;28;20197;-52
2022/10/20 05:58:31;;;;;;;1.20;1.20;;;11.70;99.90;11.00;95990.00;;;;5113538;28;20221;-53
2022/10/20 06:01:06;;;;;;;2.40;2.23;;;11.70;99.90;11.00;95985.00;;;;5095656;28;20224;-55
2022/10/20 06:03:35;;;;;;;1.80;1.70;;;11.70;99.90;11.10;95987.00;;;;5113400;28;20213;-52
2022/10/20 06:06:05;;;;;;;2.37;2.23;;;11.70;99.90;11.10;96000.00;;;;5113565;28;20201;-54
2022/10/20 06:08:34;;;;;;;1.87;1.77;;;11.80;99.90;11.10;96005.00;;;;5113480;28;20198;-55
2022/10/20 06:11:06;;;;;;;2.87;2.63;;;11.80;99.90;11.20;96006.00;;;;5113571;28;20202;-52
2022/10/20 06:13:36;;;;;;;2.27;2.07;;;11.80;99.90;11.20;96002.00;;;;5113513;28;20216;-52
2022/10/20 06:16:04;;;;;;;2.33;2.23;;;11.90;99.90;11.20;95995.00;;;;5113265;28;20278;-52
2022/10/20 06:18:33;;;;;;;1.37;1.27;;;11.90;99.90;11.30;95983.00;;;;5113241;28;20225;-52
2022/10/20 06:21:06;;;;;;;3.30;2.73;;;12.00;99.90;11.40;96019.00;;;;5113152;28;20261;-53
2022/10/20 06:23:33;;;;;;;1.13;1.13;;;12.00;99.90;11.40;96009.00;;;;5113139;28;20513;-52
2022/10/20 06:26:02;;;;;;;1.50;1.47;;;12.10;99.90;11.50;96004.00;;;;5095275;28;20202;-52
2022/10/20 06:28:30;;;;;;;5.20;3.53;;;12.10;99.90;11.40;96006.00;;;;5113096;28;20255;-52
2022/10/20 06:30:58;;;;;;;1.30;1.30;;;12.10;99.90;11.50;96016.00;;;;5095247;28;20725;-52
2022/10/20 06:33:28;;;;;;;1.93;1.83;;;12.10;99.90;11.50;96002.00;;;;5095076;28;20198;-52
2022/10/20 06:35:59;;;;;;;1.83;1.73;;;12.20;99.90;11.60;96003.00;;;;5113021;28;20196;-52
2022/10/20 06:38:25;;;;;;;3.00;1.93;;;12.20;99.90;11.70;96001.00;;;;5112968;28;20225;-52
2022/10/20 06:40:54;;;;;;;3.27;3.07;;;12.40;99.90;11.70;95996.00;;;;5113019;28;20336;-55
2022/10/20 06:43:21;;;;;;;2.87;2.67;;;12.40;99.90;11.70;95998.00;;;;5112922;28;20665;-52
2022/10/20 06:45:54;;;;;;;1.97;1.87;;;12.40;99.90;11.80;96003.00;;;;5098470;28;20236;-52
2022/10/20 06:48:21;;;;;;;1.90;1.80;;;12.40;99.90;11.80;96011.00;;;;5116340;28;20201;-54
2022/10/20 06:50:55;;;;;;;2.93;2.73;;;12.50;99.90;11.90;95993.00;;;;5116230;28;20221;-52
2022/10/20 06:53:21;;;;;;;3.17;2.90;;;12.60;99.90;11.90;96004.00;;;;5116548;28;20198;-52
2022/10/20 06:55:56;;;;;;;3.23;2.10;;;12.60;99.90;12.10;96014.00;;;;5116220;28;20283;-54
2022/10/20 06:58:23;;;;;;;3.83;3.20;;;12.70;99.90;12.20;96008.00;;;;5116209;28;20204;-54
2022/10/20 07:00:58;;;;;;;2.10;1.90;;;12.80;99.90;12.20;96005.00;;;;5116108;28;20725;-54
2022/10/20 07:03:27;;;;;;;3.40;2.00;;;12.90;99.90;12.30;96015.00;;;;5116110;28;20509;-52
2022/10/20 07:05:53;;;;;;;3.70;3.30;;;12.90;99.90;12.30;96010.00;;;;5116128;28;20222;-51
2022/10/20 07:08:23;;;;;;;2.37;2.27;;;12.90;99.90;12.40;95985.00;;;;5116205;28;20285;-52
2022/10/20 07:11:03;;;;;;;2.73;2.23;;;13.00;99.90;12.50;96016.00;;;;5116004;28;20198;-52
2022/10/20 07:13:31;;;;;;;2.00;1.83;;;13.10;99.90;12.50;96006.00;;;;5116245;28;20277;-52
2022/10/20 07:15:59;;;;;;;2.43;2.23;;;13.20;99.90;12.60;96013.00;;;;5116144;28;20201;-53
2022/10/20 07:18:28;;;;;;;3.70;3.40;;;13.20;99.90;12.70;96006.00;;;;5115892;28;20193;-52
2022/10/20 07:20:57;;;;;;;1.60;1.53;;;13.30;99.90;12.80;96007.00;;;;5115921;28;20209;-52
2022/10/20 07:23:23;;;;;;;3.00;2.80;;;13.40;99.90;12.90;96006.00;;;;5115828;28;20214;-53
2022/10/20 07:25:50;;;;;;;1.63;1.57;;;13.40;99.90;13.00;96007.00;;;;5115869;28;20190;-52
2022/10/20 07:28:16;;;;;;;2.80;1.77;;;13.50;99.90;13.00;95995.00;;;;5115703;28;20240;-52
2022/10/20 07:30:43;;;;;;;1.93;1.57;;;13.60;99.90;13.10;95995.00;;;;5115838;28;20300;-52
2022/10/20 07:33:09;;;;;;;2.37;2.27;;;13.70;99.90;13.20;95999.00;;;;5116021;28;20198;-53
2022/10/20 07:35:37;;;;;;;2.03;1.93;;;13.80;99.90;13.30;95997.00;;;;5115746;28;20189;-53
2022/10/20 07:38:03;;;;;;;2.50;2.30;;;13.90;99.90;13.40;96000.00;;;;5115595;28;20217;-52
2022/10/20 07:40:32;;;;;;;2.03;1.90;;;13.90;99.90;13.20;96008.00;;;;5115627;28;20257;-52
2022/10/20 07:42:58;;;;;;;1.67;1.57;;;14.00;99.30;13.30;96005.00;;;;5115623;28;20652;-53
2022/10/20 07:45:25;;;;;;;2.53;2.43;;;14.00;99.50;13.40;96003.00;;;;5115551;28;20225;-52
2022/10/20 07:47:51;;;;;;;1.87;1.77;;;14.00;99.60;13.50;96002.00;;;;5115590;28;20313;-55
2022/10/20 07:50:18;;;;;;;2.73;2.00;;;14.10;99.60;13.50;95996.00;;;;5115404;28;20556;-53
2022/10/20 07:52:49;;;;;;;2.13;2.03;;;14.10;99.20;13.50;95994.00;;;;5097530;28;20286;-54
2022/10/20 07:55:16;;;;;;;1.90;1.80;;;14.10;99.30;13.60;95999.00;;;;5096239;28;20741;-53
2022/10/20 07:57:42;;;;;;;2.77;2.13;;;14.30;99.30;13.80;95996.00;;;;5115267;28;20277;-52
2022/10/20 08:00:11;;;;;;;2.47;2.27;;;14.30;98.70;13.90;95985.00;;;;5115217;28;20237;-54
2022/10/20 08:02:39;;;;;;;1.33;1.33;;;14.40;98.50;14.10;95979.00;;;;5097110;28;20568;-52
2022/10/20 08:05:09;;;;;;;3.23;2.97;;;14.60;98.20;14.20;95986.00;;;;5115038;28;20522;-52
2022/10/20 08:07:35;;;;;;;2.70;2.50;;;14.70;97.10;14.30;95994.00;;;;5115097;28;20225;-52
2022/10/20 08:10:03;;;;;;;3.30;2.10;;;14.80;97.20;14.40;95988.00;;;;5115181;28;20226;-52
2022/10/20 08:12:30;;;;;;;2.63;2.40;;;15.00;99.90;14.50;95981.00;;;;5114945;28;20272;-52
2022/10/20 08:14:58;;;;;;;1.90;1.80;;;15.00;95.20;14.60;95990.00;;;;5115040;28;20198;-52
2022/10/20 08:17:26;;;;;;;6.07;2.47;;;15.10;94.20;14.30;95977.00;;;;5114946;28;20284;-52
2022/10/20 08:19:55;;;;;;;2.07;1.97;;;14.90;93.90;14.40;95975.00;;;;5114864;28;20209;-52
2022/10/20 08:22:21;;;;;;;4.30;2.63;;;14.90;94.30;14.20;95987.00;;;;5115053;28;20292;-52
2022/10/20 08:24:48;;;;;;;2.97;2.23;;;14.80;93.80;14.10;95994.00;;;;5114682;28;20239;-53
2022/10/20 08:27:15;;;;;;;2.80;2.60;;;14.70;95.80;14.20;96000.00;;;;5114732;28;20519;-52
2022/10/20 08:29:41;;;;;;;1.70;1.60;;;14.70;95.40;14.30;96000.00;;;;5114766;28;20572;-52
2022/10/20 08:32:11;;;;;;;4.70;2.53;;;14.80;95.00;14.10;95984.00;;;;5114674;28;20560;-51
2022/10/20 08:34:38;;;;;;;1.97;1.87;;;14.70;95.50;13.90;95990.00;;;;5114625;28;20213;-52
2022/10/20 08:37:05;;;;;;;2.30;2.20;;;14.50;96.40;13.60;95994.00;;;;5114737;28;20204;-51
2022/10/20 08:39:31;;;;;;;2.33;2.20;;;14.30;97.60;13.80;95991.00;;;;5114615;28;20328;-52
2022/10/20 08:41:59;;;;;;;2.63;2.43;;;14.40;98.80;14.10;95994.00;;;;5113687;28;20657;-52
2022/10/20 08:44:31;;;;;;;2.17;2.07;;;14.60;97.40;14.00;95995.00;;;;5114619;28;20304;-52
2022/10/20 08:47:01;;;;;;;14.43;2.63;;;14.60;97.80;14.30;95994.00;;;;5114401;28;20229;-54
2022/10/20 08:49:32;;;;;;;2.13;2.03;;;14.80;96.50;14.50;95981.00;;;;5114480;28;20244;-52
2022/10/20 08:51:59;;;;;;;2.87;2.67;;;15.00;96.20;14.70;96019.00;;;;5114362;28;20669;-52
2022/10/20 08:54:26;;;;;;;1.73;1.63;;;15.10;95.70;14.40;96031.00;;;;5114449;28;20225;-52
2022/10/20 08:56:55;;;;;;;2.50;2.30;;;14.90;95.20;14.40;96005.00;;;;5114255;28;20304;-52
2022/10/20 08:59:32;;;;;;;2.07;1.90;;;15.00;95.00;14.10;95981.00;;;;5114601;28;20580;-54
2022/10/20 09:02:01;;;;;;;3.87;3.17;;;14.80;95.90;14.40;96006.00;;;;5114242;28;20225;-52
2022/10/20 09:04:35;;;;;;;2.37;2.27;;;14.90;96.10;14.50;96002.00;;;;5114072;28;20646;-54
2022/10/20 09:07:14;;;;;;;2.50;2.30;;;15.00;96.60;14.40;96004.00;;;;5113858;28;20194;-54
2022/10/20 09:09:41;;;;;;;2.93;2.63;;;14.90;96.30;14.30;96002.00;;;;5114227;28;20213;-53
2022/10/20 09:12:12;;;;;;;2.27;2.07;;;14.80;96.40;14.60;96000.00;;;;5113995;28;20641;-52
2022/10/20 09:14:39;;;;;;;2.00;1.90;;;15.10;96.40;14.60;96010.00;;;;5114003;28;20221;-52
2022/10/20 09:17:13;;;;;;;2.03;1.93;;;15.10;95.60;14.60;96023.00;;;;5114117;28;20194;-53
2022/10/20 09:19:43;;;;;;;5.53;2.27;;;15.20;95.40;14.70;96015.00;;;;5114096;28;20601;-53
2022/10/20 09:22:13;;;;;;;3.00;2.23;;;15.20;95.30;14.50;96028.00;;;;5114204;28;20228;-52
2022/10/20 09:24:42;;;;;;;1.97;1.87;;;15.10;95.50;14.30;96032.00;;;;5095820;28;20221;-55
2022/10/20 09:27:24;;;;;;;2.90;2.70;;;14.90;97.40;14.40;96046.00;;;;5114082;28;20198;-54
2022/10/20 09:29:51;;;;;;;5.30;2.57;;;14.90;97.30;14.50;96056.00;;;;5113924;28;20201;-53
2022/10/20 09:32:33;;;;;;;1.87;1.77;;;14.90;97.80;14.30;96050.00;;;;5113914;28;20205;-53
2022/10/20 09:35:18;;;;;;;3.23;1.93;;;14.90;97.40;14.50;96054.00;;;;5113963;28;20190;-53
2022/10/20 09:37:56;;;;;;;2.10;2.00;;;15.00;96.90;14.40;96045.00;;;;5113898;28;20205;-52
2022/10/20 09:40:25;;;;;;;3.47;2.73;;;15.00;96.60;14.40;96040.00;;;;5114022;28;20538;-54
2022/10/20 09:42:56;;;;;;;1.37;1.37;;;14.90;97.50;14.50;96033.00;;;;5113721;28;20321;-52
2022/10/20 09:45:29;;;;;;;2.23;2.13;;;15.00;97.60;14.70;96034.00;;;;5113783;28;20282;-53
2022/10/20 09:48:03;;;;;;;3.40;1.93;;;15.20;97.70;14.80;96039.00;;;;5113733;28;20634;-53
2022/10/20 09:50:34;;;;;;;2.10;1.90;;;15.20;97.40;15.00;96031.00;;;;5113803;28;20347;-53
2022/10/20 09:53:17;;;;;;;1.33;1.17;;;15.40;96.60;15.10;96042.00;;;;5113534;28;20611;-53
2022/10/20 09:55:48;;;;;;;7.43;2.00;;;15.60;95.60;15.10;96030.00;;;;5113623;28;20629;-53
2022/10/20 09:58:22;;;;;;;3.83;2.83;;;15.60;95.50;15.10;96037.00;;;;5113634;28;20225;-53
2022/10/20 10:01:00;;;;;;;1.60;1.50;;;15.70;95.10;15.20;96038.00;;;;5113625;28;20194;-53
2022/10/20 10:03:27;;;;;;;1.97;1.30;;;15.80;95.10;15.10;96042.00;;;;5113939;28;20262;-53
2022/10/20 10:05:56;;;;;;;1.87;1.77;;;15.70;94.80;15.30;96037.00;;;;5116333;28;20236;-54
2022/10/20 10:08:26;;;;;;;3.57;1.97;;;15.80;96.70;15.40;96030.00;;;;5113815;28;20229;-57
2022/10/20 10:11:04;;;;;;;2.63;2.43;;;15.90;94.40;15.30;96018.00;;;;5113688;28;20245;-54
2022/10/20 10:13:39;;;;;;;1.23;1.17;;;15.90;94.30;15.40;96033.00;;;;5113414;28;20235;-53
2022/10/20 10:16:10;;;;;;;1.67;1.57;;;16.00;94.40;15.50;96018.00;;;;5113230;28;20209;-51
2022/10/20 10:18:38;;;;;;;2.90;2.70;;;16.10;93.80;15.50;96031.00;;;;5113681;28;20633;-52
2022/10/20 10:21:08;;;;;;;4.17;2.50;;;16.10;93.60;15.60;96039.00;;;;5116764;28;20268;-56
2022/10/20 10:23:48;;;;;;;3.03;2.30;;;16.10;93.60;15.60;96038.00;;;;5116826;28;20210;-52
2022/10/20 10:26:46;;;;;;;1.20;1.10;;;16.20;92.70;15.60;96007.00;;;;5099190;28;20236;-51
2022/10/20 10:29:26;;;;;;;1.93;1.83;;;16.20;93.10;15.40;96021.00;;;;5095231;28;20649;-52
2022/10/20 10:31:59;;;;;;;1.60;1.50;;;16.10;93.50;15.40;96023.00;;;;5116606;28;20728;-53
2022/10/20 10:34:55;;;;;;;1.60;1.50;;;16.00;93.90;15.50;96005.00;;;;5116643;28;20213;-53
2022/10/20 10:37:22;;;;;;;1.33;1.33;;;16.10;93.50;15.50;96009.00;;;;5116566;28;20225;-53
2022/10/20 10:39:48;;;;;;;12.03;2.10;;;16.00;93.50;15.60;96010.00;;;;5116751;28;20568;-52
2022/10/20 10:43:02;;;;;;;1.77;1.67;;;16.10;93.70;15.80;96047.00;;;;5116769;28;20198;-57
2022/10/20 10:45:44;;;;;;;0.90;0.90;;;16.30;90.70;15.50;96040.00;;;;5116431;28;20736;-53
2022/10/20 10:48:51;;;;;;;1.17;1.17;;;16.10;91.70;15.60;96022.00;;;;5116492;28;20198;-54
2022/10/20 10:51:33;;;;;;;1.60;1.50;;;16.20;93.10;15.60;96022.00;;;;5116450;28;20198;-54
2022/10/20 10:54:19;;;;;;;1.27;1.17;;;16.20;93.30;15.70;96034.00;;;;5116476;28;20217;-56
2022/10/20 10:56:51;;;;;;;2.30;2.10;;;16.20;92.30;15.80;96019.00;;;;5116413;28;20198;-54
2022/10/20 10:59:23;;;;;;;1.80;1.70;;;16.30;92.10;15.90;96014.00;;;;5116341;28;20202;-53
2022/10/20 11:02:16;;;;;;;2.90;2.60;;;16.40;92.00;15.90;96009.00;;;;5116096;28;20660;-51
2022/10/20 11:05:19;;;;;;;1.10;0.93;;;16.40;92.00;16.00;96016.00;;;;5098238;28;20325;-54
2022/10/20 11:07:56;;;;;;;1.57;1.47;;;16.50;91.80;15.80;96012.00;;;;5106123;28;20206;-52
2022/10/20 11:10:35;;;;;;;2.30;2.20;;;16.40;90.30;15.80;96005.00;;;;5116079;28;20209;-51